Airfield :
LOGIN :

Register | Disclaimer

   EN    FR    IT 

 










Legend :    VFR   Marginal VFR   IFR   Intensive IFR   Very Intensive IFR
Visi :
Ceiling :
>= 8 km
>= 3000ft
5 to 8 km
1000 to 3000 ft
1500m to 5 km
500 to 1000 ft
800 to 1500m
200 to 500 ft
< 800m
< 200 ft
Symbols :   Thunderstorms  Fog  Heavy snow  Heavy precipitations  Wind > 20 kt
SIGMETs :     Misc.  Thunderstorms  Icing  Turbulence  Mountain Waves  Volcanic Ashes






- Airport Elevation : 1585 ft
- IATA code : SIR


LSGS - Sion

CURRENT METAR :
  • 271320Z 00000KT 4000 -SN SCT010 OVC060 M02/M03 Q1017 R/SNOCLO

EXPIRED METARs :
  • 271250Z VRB01KT 3400 -SN SCT010 OVC060 M02/M02 Q1017 R/SNOCLO
  • 271220Z VRB03KT 5000 -SN SCT010 OVC060 M02/M03 Q1018 R/SNOCLO
  • 271150Z 08004KT 1300 -SN VV009 M02/M03 Q1019 R/SNOCLO
  • 271120Z VRB03KT 1200 -SN VV007 M02/M03 Q1019 R/SNOCLO
  • 271050Z 08003KT 2000 -SN VV012 M02/M03 Q1019 R/SNOCLO

TAF TAF LSGS
Valid from the 27 at 12:00 until the 27 at 21:00 UTC


271125Z 2712/2721 09005KT 1200 SN VV008
BECMG 2715/2717 4500 RASN BKN015



MET'MAP, your aeronautical weather chart ! - Copyright ORBIFLY December 2007 - Disclaimer

ORBIFLY MET'MAP TEAM :

Programming & Development : Alexandra Zaïnal
Concept & original design : Baudouin d'Aumeries
Assistance for programming : Marc-Olivier Méhu
Technical & hardware support : Manuel Goepfert

Contact : metmap@orbifly.com




SOURCES & CREDITS :

   NOAA